Aviation Digital Data Service (ADDS)

Output produced by METARs form (1727 UTC 30 October 2014)
found at http://aviationweather.gov/adds/metars/
 
KPBG 301720Z 3018/3118 30007KT P6SM BKN060 
     FM311400 12004KT P6SM OVC040